sensor_id;sensor_type;location;lat;lon;timestamp;P1;durP1;ratioP1;P2;durP2;ratioP2
32080;SDS011;18593;51.426;7.030;2023-05-24T00:01:55;14.80;;;3.03;;
32080;SDS011;18593;51.426;7.030;2023-05-24T00:04:22;18.88;;;3.67;;
32080;SDS011;18593;51.426;7.030;2023-05-24T00:09:23;17.02;;;3.03;;
32080;SDS011;18593;51.426;7.030;2023-05-24T00:11:51;13.00;;;2.88;;
32080;SDS011;18593;51.426;7.030;2023-05-24T00:14:18;15.70;;;4.13;;
32080;SDS011;18593;51.426;7.030;2023-05-24T00:16:46;12.38;;;3.08;;
32080;SDS011;18593;51.426;7.030;2023-05-24T00:19:13;11.88;;;2.80;;
32080;SDS011;18593;51.426;7.030;2023-05-24T00:21:42;12.57;;;3.25;;
32080;SDS011;18593;51.426;7.030;2023-05-24T00:24:10;11.15;;;2.95;;
32080;SDS011;18593;51.426;7.030;2023-05-24T00:26:39;13.65;;;3.15;;
32080;SDS011;18593;51.426;7.030;2023-05-24T00:29:06;21.55;;;3.55;;
32080;SDS011;18593;51.426;7.030;2023-05-24T00:31:34;18.50;;;3.53;;
32080;SDS011;18593;51.426;7.030;2023-05-24T00:34:02;20.15;;;4.07;;
32080;SDS011;18593;51.426;7.030;2023-05-24T00:36:29;13.48;;;3.25;;
32080;SDS011;18593;51.426;7.030;2023-05-24T00:38:57;17.10;;;3.42;;
32080;SDS011;18593;51.426;7.030;2023-05-24T00:41:24;22.25;;;3.45;;
32080;SDS011;18593;51.426;7.030;2023-05-24T00:43:53;15.10;;;3.38;;
32080;SDS011;18593;51.426;7.030;2023-05-24T00:46:22;13.00;;;3.28;;
32080;SDS011;18593;51.426;7.030;2023-05-24T00:48:54;19.45;;;4.03;;
32080;SDS011;18593;51.426;7.030;2023-05-24T00:51:23;17.73;;;3.83;;
32080;SDS011;18593;51.426;7.030;2023-05-24T00:53:54;14.52;;;3.10;;
32080;SDS011;18593;51.426;7.030;2023-05-24T00:56:22;15.05;;;2.97;;
32080;SDS011;18593;51.426;7.030;2023-05-24T00:58:50;16.67;;;3.95;;
32080;SDS011;18593;51.426;7.030;2023-05-24T01:01:22;17.55;;;3.30;;
32080;SDS011;18593;51.426;7.030;2023-05-24T01:03:51;13.95;;;3.25;;
32080;SDS011;18593;51.426;7.030;2023-05-24T01:06:18;13.27;;;3.33;;
32080;SDS011;18593;51.426;7.030;2023-05-24T01:08:53;13.50;;;2.80;;
32080;SDS011;18593;51.426;7.030;2023-05-24T01:11:39;23.20;;;3.75;;
32080;SDS011;18593;51.426;7.030;2023-05-24T01:14:21;11.77;;;3.22;;
32080;SDS011;18593;51.426;7.030;2023-05-24T01:16:59;16.23;;;2.97;;
32080;SDS011;18593;51.426;7.030;2023-05-24T01:28:57;13.73;;;3.28;;
32080;SDS011;18593;51.426;7.030;2023-05-24T01:31:27;15.60;;;3.05;;
32080;SDS011;18593;51.426;7.030;2023-05-24T01:33:55;10.10;;;3.22;;
32080;SDS011;18593;51.426;7.030;2023-05-24T01:36:25;12.80;;;3.40;;
32080;SDS011;18593;51.426;7.030;2023-05-24T01:38:53;12.23;;;2.63;;
32080;SDS011;18593;51.426;7.030;2023-05-24T01:41:22;13.20;;;3.30;;
32080;SDS011;18593;51.426;7.030;2023-05-24T01:44:05;11.57;;;3.40;;
32080;SDS011;18593;51.426;7.030;2023-05-24T01:46:40;14.52;;;3.22;;
32080;SDS011;18593;51.426;7.030;2023-05-24T01:49:16;13.40;;;2.88;;
32080;SDS011;18593;51.426;7.030;2023-05-24T01:51:57;18.23;;;4.03;;
32080;SDS011;18593;51.426;7.030;2023-05-24T01:54:30;17.13;;;3.85;;
32080;SDS011;18593;51.426;7.030;2023-05-24T01:57:03;15.35;;;3.20;;
32080;SDS011;18593;51.426;7.030;2023-05-24T01:59:36;13.75;;;3.38;;
32080;SDS011;18593;51.426;7.030;2023-05-24T02:02:08;14.63;;;3.55;;
32080;SDS011;18593;51.426;7.030;2023-05-24T02:04:36;16.83;;;3.88;;
32080;SDS011;18593;51.426;7.030;2023-05-24T02:07:05;20.38;;;3.78;;
32080;SDS011;18593;51.426;7.030;2023-05-24T02:09:32;14.07;;;3.35;;
32080;SDS011;18593;51.426;7.030;2023-05-24T02:12:00;18.77;;;3.28;;
32080;SDS011;18593;51.426;7.030;2023-05-24T02:14:27;18.17;;;3.45;;
32080;SDS011;18593;51.426;7.030;2023-05-24T02:16:57;15.43;;;3.65;;
32080;SDS011;18593;51.426;7.030;2023-05-24T02:19:24;16.42;;;3.42;;
32080;SDS011;18593;51.426;7.030;2023-05-24T02:21:52;12.00;;;3.50;;
32080;SDS011;18593;51.426;7.030;2023-05-24T02:24:19;11.15;;;2.83;;
32080;SDS011;18593;51.426;7.030;2023-05-24T02:26:47;15.45;;;3.85;;
32080;SDS011;18593;51.426;7.030;2023-05-24T02:29:14;16.50;;;4.15;;
32080;SDS011;18593;51.426;7.030;2023-05-24T02:31:42;12.80;;;3.80;;
32080;SDS011;18593;51.426;7.030;2023-05-24T02:34:10;16.02;;;3.50;;
32080;SDS011;18593;51.426;7.030;2023-05-24T02:36:38;14.90;;;4.20;;
32080;SDS011;18593;51.426;7.030;2023-05-24T02:39:05;14.27;;;3.92;;
32080;SDS011;18593;51.426;7.030;2023-05-24T02:41:32;16.25;;;3.80;;
32080;SDS011;18593;51.426;7.030;2023-05-24T02:43:59;11.95;;;3.75;;
32080;SDS011;18593;51.426;7.030;2023-05-24T02:46:27;15.10;;;4.18;;
32080;SDS011;18593;51.426;7.030;2023-05-24T02:48:54;16.52;;;4.43;;
32080;SDS011;18593;51.426;7.030;2023-05-24T02:51:23;15.43;;;4.13;;
32080;SDS011;18593;51.426;7.030;2023-05-24T02:53:50;15.20;;;3.83;;
32080;SDS011;18593;51.426;7.030;2023-05-24T02:56:17;19.52;;;3.83;;
32080;SDS011;18593;51.426;7.030;2023-05-24T02:58:46;17.75;;;4.05;;
32080;SDS011;18593;51.426;7.030;2023-05-24T03:01:13;17.55;;;4.65;;
32080;SDS011;18593;51.426;7.030;2023-05-24T03:03:40;16.48;;;4.20;;
32080;SDS011;18593;51.426;7.030;2023-05-24T03:06:08;13.52;;;3.95;;
32080;SDS011;18593;51.426;7.030;2023-05-24T03:08:39;17.63;;;4.45;;
32080;SDS011;18593;51.426;7.030;2023-05-24T03:11:07;17.35;;;4.38;;
32080;SDS011;18593;51.426;7.030;2023-05-24T03:13:34;14.52;;;4.40;;
32080;SDS011;18593;51.426;7.030;2023-05-24T03:16:01;12.23;;;4.03;;
32080;SDS011;18593;51.426;7.030;2023-05-24T03:18:29;16.08;;;4.47;;
32080;SDS011;18593;51.426;7.030;2023-05-24T03:20:56;13.07;;;4.25;;
32080;SDS011;18593;51.426;7.030;2023-05-24T03:23:23;13.48;;;4.03;;
32080;SDS011;18593;51.426;7.030;2023-05-24T03:25:58;21.27;;;5.07;;
32080;SDS011;18593;51.426;7.030;2023-05-24T03:28:25;16.90;;;4.28;;
32080;SDS011;18593;51.426;7.030;2023-05-24T03:30:52;18.27;;;4.40;;
32080;SDS011;18593;51.426;7.030;2023-05-24T03:33:20;12.20;;;3.60;;
32080;SDS011;18593;51.426;7.030;2023-05-24T03:35:48;17.75;;;4.35;;
32080;SDS011;18593;51.426;7.030;2023-05-24T03:38:22;17.45;;;4.93;;
32080;SDS011;18593;51.426;7.030;2023-05-24T03:40:50;22.50;;;5.07;;
32080;SDS011;18593;51.426;7.030;2023-05-24T03:43:18;15.70;;;4.10;;
32080;SDS011;18593;51.426;7.030;2023-05-24T03:45:50;25.00;;;5.40;;
32080;SDS011;18593;51.426;7.030;2023-05-24T03:48:18;22.85;;;4.75;;
32080;SDS011;18593;51.426;7.030;2023-05-24T03:50:46;15.48;;;3.95;;
32080;SDS011;18593;51.426;7.030;2023-05-24T03:53:13;15.45;;;4.30;;
32080;SDS011;18593;51.426;7.030;2023-05-24T03:55:41;22.83;;;4.57;;
32080;SDS011;18593;51.426;7.030;2023-05-24T03:58:11;13.98;;;4.57;;
32080;SDS011;18593;51.426;7.030;2023-05-24T04:00:40;15.57;;;4.28;;
32080;SDS011;18593;51.426;7.030;2023-05-24T04:03:07;28.08;;;5.25;;
32080;SDS011;18593;51.426;7.030;2023-05-24T04:05:37;19.02;;;4.35;;
32080;SDS011;18593;51.426;7.030;2023-05-24T04:08:17;18.58;;;4.85;;
32080;SDS011;18593;51.426;7.030;2023-05-24T04:10:45;21.55;;;4.55;;
32080;SDS011;18593;51.426;7.030;2023-05-24T04:13:12;16.90;;;5.07;;
32080;SDS011;18593;51.426;7.030;2023-05-24T04:15:43;19.13;;;4.57;;
32080;SDS011;18593;51.426;7.030;2023-05-24T04:18:12;19.27;;;5.13;;
32080;SDS011;18593;51.426;7.030;2023-05-24T04:20:39;20.73;;;4.65;;
32080;SDS011;18593;51.426;7.030;2023-05-24T04:23:07;19.48;;;4.60;;
32080;SDS011;18593;51.426;7.030;2023-05-24T04:25:35;23.60;;;4.45;;
32080;SDS011;18593;51.426;7.030;2023-05-24T04:28:10;23.50;;;4.93;;
32080;SDS011;18593;51.426;7.030;2023-05-24T04:30:37;21.70;;;5.22;;
32080;SDS011;18593;51.426;7.030;2023-05-24T04:33:07;23.77;;;5.93;;
32080;SDS011;18593;51.426;7.030;2023-05-24T04:35:34;19.80;;;4.63;;
32080;SDS011;18593;51.426;7.030;2023-05-24T04:38:02;17.88;;;4.43;;
32080;SDS011;18593;51.426;7.030;2023-05-24T04:40:30;20.00;;;4.78;;
32080;SDS011;18593;51.426;7.030;2023-05-24T04:42:57;17.73;;;4.50;;
32080;SDS011;18593;51.426;7.030;2023-05-24T04:45:25;16.75;;;4.18;;
32080;SDS011;18593;51.426;7.030;2023-05-24T04:47:52;20.27;;;5.00;;
32080;SDS011;18593;51.426;7.030;2023-05-24T04:50:21;13.95;;;4.22;;
32080;SDS011;18593;51.426;7.030;2023-05-24T04:52:48;14.05;;;4.43;;
32080;SDS011;18593;51.426;7.030;2023-05-24T04:55:16;15.80;;;4.53;;
32080;SDS011;18593;51.426;7.030;2023-05-24T04:57:43;21.33;;;4.65;;
32080;SDS011;18593;51.426;7.030;2023-05-24T05:00:11;21.67;;;4.97;;
32080;SDS011;18593;51.426;7.030;2023-05-24T05:02:39;14.43;;;5.03;;
32080;SDS011;18593;51.426;7.030;2023-05-24T05:05:06;20.50;;;4.90;;
32080;SDS011;18593;51.426;7.030;2023-05-24T05:07:35;24.98;;;5.18;;
32080;SDS011;18593;51.426;7.030;2023-05-24T05:10:03;18.10;;;4.60;;
32080;SDS011;18593;51.426;7.030;2023-05-24T05:12:31;19.35;;;5.10;;
32080;SDS011;18593;51.426;7.030;2023-05-24T05:14:59;20.20;;;5.35;;
32080;SDS011;18593;51.426;7.030;2023-05-24T05:17:26;22.90;;;5.97;;
32080;SDS011;18593;51.426;7.030;2023-05-24T05:19:53;24.45;;;5.28;;
32080;SDS011;18593;51.426;7.030;2023-05-24T05:22:21;23.67;;;6.35;;
32080;SDS011;18593;51.426;7.030;2023-05-24T05:24:50;30.13;;;6.18;;
32080;SDS011;18593;51.426;7.030;2023-05-24T05:27:17;31.63;;;6.25;;
32080;SDS011;18593;51.426;7.030;2023-05-24T05:29:45;33.97;;;7.30;;
32080;SDS011;18593;51.426;7.030;2023-05-24T05:32:12;26.67;;;6.25;;
32080;SDS011;18593;51.426;7.030;2023-05-24T05:34:40;34.30;;;6.45;;
32080;SDS011;18593;51.426;7.030;2023-05-24T05:37:07;28.38;;;7.07;;
32080;SDS011;18593;51.426;7.030;2023-05-24T05:39:35;27.25;;;7.18;;
32080;SDS011;18593;51.426;7.030;2023-05-24T05:42:04;24.35;;;6.90;;
32080;SDS011;18593;51.426;7.030;2023-05-24T05:44:32;23.70;;;6.65;;
32080;SDS011;18593;51.426;7.030;2023-05-24T05:46:59;29.70;;;7.45;;
32080;SDS011;18593;51.426;7.030;2023-05-24T05:49:31;24.60;;;6.50;;
32080;SDS011;18593;51.426;7.030;2023-05-24T05:52:00;26.48;;;7.13;;
32080;SDS011;18593;51.426;7.030;2023-05-24T05:54:27;29.85;;;6.80;;
32080;SDS011;18593;51.426;7.030;2023-05-24T05:56:55;32.15;;;7.32;;
32080;SDS011;18593;51.426;7.030;2023-05-24T05:59:24;25.83;;;6.93;;
32080;SDS011;18593;51.426;7.030;2023-05-24T06:01:51;24.30;;;6.80;;
32080;SDS011;18593;51.426;7.030;2023-05-24T06:04:19;27.40;;;6.97;;
32080;SDS011;18593;51.426;7.030;2023-05-24T06:06:46;26.30;;;6.18;;
32080;SDS011;18593;51.426;7.030;2023-05-24T06:09:14;25.80;;;6.50;;
32080;SDS011;18593;51.426;7.030;2023-05-24T06:11:41;28.20;;;7.15;;
32080;SDS011;18593;51.426;7.030;2023-05-24T06:14:09;31.42;;;6.25;;
32080;SDS011;18593;51.426;7.030;2023-05-24T06:16:38;33.10;;;6.57;;
32080;SDS011;18593;51.426;7.030;2023-05-24T06:19:07;24.45;;;6.45;;
32080;SDS011;18593;51.426;7.030;2023-05-24T06:21:34;32.38;;;6.93;;
32080;SDS011;18593;51.426;7.030;2023-05-24T06:24:02;30.20;;;6.68;;
32080;SDS011;18593;51.426;7.030;2023-05-24T06:26:29;29.73;;;6.65;;
32080;SDS011;18593;51.426;7.030;2023-05-24T06:28:56;23.17;;;6.53;;
32080;SDS011;18593;51.426;7.030;2023-05-24T06:31:24;23.00;;;6.50;;
32080;SDS011;18593;51.426;7.030;2023-05-24T06:33:52;27.45;;;6.20;;
32080;SDS011;18593;51.426;7.030;2023-05-24T06:36:19;21.60;;;6.15;;
32080;SDS011;18593;51.426;7.030;2023-05-24T06:38:47;28.33;;;6.32;;
32080;SDS011;18593;51.426;7.030;2023-05-24T06:41:14;26.70;;;6.53;;
32080;SDS011;18593;51.426;7.030;2023-05-24T06:43:41;27.90;;;6.45;;
32080;SDS011;18593;51.426;7.030;2023-05-24T06:46:10;24.13;;;5.40;;
32080;SDS011;18593;51.426;7.030;2023-05-24T06:48:37;24.90;;;5.85;;
32080;SDS011;18593;51.426;7.030;2023-05-24T06:51:06;26.67;;;6.65;;
32080;SDS011;18593;51.426;7.030;2023-05-24T06:53:33;27.13;;;5.75;;
32080;SDS011;18593;51.426;7.030;2023-05-24T06:56:00;25.98;;;5.63;;
32080;SDS011;18593;51.426;7.030;2023-05-24T06:58:28;27.25;;;6.05;;
32080;SDS011;18593;51.426;7.030;2023-05-24T07:00:55;26.33;;;5.30;;
32080;SDS011;18593;51.426;7.030;2023-05-24T07:03:22;31.05;;;6.75;;
32080;SDS011;18593;51.426;7.030;2023-05-24T07:05:49;26.70;;;5.40;;
32080;SDS011;18593;51.426;7.030;2023-05-24T07:08:18;22.45;;;5.20;;
32080;SDS011;18593;51.426;7.030;2023-05-24T07:10:45;19.52;;;5.63;;
32080;SDS011;18593;51.426;7.030;2023-05-24T07:13:13;20.60;;;5.35;;
32080;SDS011;18593;51.426;7.030;2023-05-24T07:15:40;21.65;;;5.35;;
32080;SDS011;18593;51.426;7.030;2023-05-24T07:18:08;22.60;;;5.95;;
32080;SDS011;18593;51.426;7.030;2023-05-24T07:20:35;20.10;;;5.18;;
32080;SDS011;18593;51.426;7.030;2023-05-24T07:23:03;25.98;;;5.53;;
32080;SDS011;18593;51.426;7.030;2023-05-24T07:25:32;26.83;;;4.90;;
32080;SDS011;18593;51.426;7.030;2023-05-24T07:27:59;19.80;;;5.43;;
32080;SDS011;18593;51.426;7.030;2023-05-24T07:30:27;24.90;;;5.63;;
32080;SDS011;18593;51.426;7.030;2023-05-24T07:32:54;22.20;;;5.15;;
32080;SDS011;18593;51.426;7.030;2023-05-24T07:35:22;21.60;;;4.80;;
32080;SDS011;18593;51.426;7.030;2023-05-24T07:37:49;23.50;;;5.28;;
32080;SDS011;18593;51.426;7.030;2023-05-24T07:40:16;19.40;;;5.07;;
32080;SDS011;18593;51.426;7.030;2023-05-24T07:42:46;25.15;;;5.05;;
32080;SDS011;18593;51.426;7.030;2023-05-24T07:45:15;22.15;;;4.65;;
32080;SDS011;18593;51.426;7.030;2023-05-24T07:47:42;17.00;;;4.50;;
32080;SDS011;18593;51.426;7.030;2023-05-24T07:50:10;22.92;;;5.45;;
32080;SDS011;18593;51.426;7.030;2023-05-24T07:52:37;21.45;;;5.50;;
32080;SDS011;18593;51.426;7.030;2023-05-24T07:55:05;22.92;;;4.75;;
32080;SDS011;18593;51.426;7.030;2023-05-24T07:57:32;21.45;;;4.93;;
32080;SDS011;18593;51.426;7.030;2023-05-24T08:00:01;17.92;;;5.35;;
32080;SDS011;18593;51.426;7.030;2023-05-24T08:02:36;21.25;;;4.45;;
32080;SDS011;18593;51.426;7.030;2023-05-24T08:05:04;25.88;;;5.68;;
32080;SDS011;18593;51.426;7.030;2023-05-24T08:07:34;21.73;;;5.03;;
32080;SDS011;18593;51.426;7.030;2023-05-24T08:10:01;18.13;;;4.47;;
32080;SDS011;18593;51.426;7.030;2023-05-24T08:12:29;13.60;;;3.97;;
32080;SDS011;18593;51.426;7.030;2023-05-24T08:14:56;20.40;;;4.43;;
32080;SDS011;18593;51.426;7.030;2023-05-24T08:17:25;20.58;;;4.80;;
32080;SDS011;18593;51.426;7.030;2023-05-24T08:19:52;23.42;;;5.53;;
32080;SDS011;18593;51.426;7.030;2023-05-24T08:22:20;17.55;;;4.88;;
32080;SDS011;18593;51.426;7.030;2023-05-24T08:24:47;23.02;;;5.15;;
32080;SDS011;18593;51.426;7.030;2023-05-24T08:27:15;21.63;;;4.97;;
32080;SDS011;18593;51.426;7.030;2023-05-24T08:32:16;23.20;;;4.93;;
32080;SDS011;18593;51.426;7.030;2023-05-24T08:34:44;17.98;;;4.93;;
32080;SDS011;18593;51.426;7.030;2023-05-24T08:37:12;16.95;;;4.53;;
32080;SDS011;18593;51.426;7.030;2023-05-24T08:39:39;22.83;;;4.43;;
32080;SDS011;18593;51.426;7.030;2023-05-24T08:42:06;16.25;;;4.00;;
32080;SDS011;18593;51.426;7.030;2023-05-24T08:44:35;18.10;;;4.68;;
32080;SDS011;18593;51.426;7.030;2023-05-24T08:47:06;18.00;;;4.00;;
32080;SDS011;18593;51.426;7.030;2023-05-24T08:49:34;26.55;;;5.22;;
32080;SDS011;18593;51.426;7.030;2023-05-24T08:52:04;21.13;;;4.57;;
32080;SDS011;18593;51.426;7.030;2023-05-24T08:54:33;19.67;;;4.72;;
32080;SDS011;18593;51.426;7.030;2023-05-24T08:57:02;17.33;;;4.68;;
32080;SDS011;18593;51.426;7.030;2023-05-24T08:59:30;15.85;;;5.00;;
32080;SDS011;18593;51.426;7.030;2023-05-24T09:01:58;19.95;;;4.38;;
32080;SDS011;18593;51.426;7.030;2023-05-24T09:04:26;24.02;;;5.05;;
32080;SDS011;18593;51.426;7.030;2023-05-24T09:06:55;18.05;;;3.97;;
32080;SDS011;18593;51.426;7.030;2023-05-24T09:09:25;18.48;;;4.90;;
32080;SDS011;18593;51.426;7.030;2023-05-24T09:11:55;19.43;;;5.33;;
32080;SDS011;18593;51.426;7.030;2023-05-24T09:14:25;22.02;;;5.25;;
32080;SDS011;18593;51.426;7.030;2023-05-24T09:16:53;21.88;;;4.72;;
32080;SDS011;18593;51.426;7.030;2023-05-24T09:19:20;21.13;;;5.13;;
32080;SDS011;18593;51.426;7.030;2023-05-24T09:21:48;26.52;;;5.55;;
32080;SDS011;18593;51.426;7.030;2023-05-24T09:24:17;17.17;;;4.82;;
32080;SDS011;18593;51.426;7.030;2023-05-24T09:26:48;20.05;;;5.22;;
32080;SDS011;18593;51.426;7.030;2023-05-24T09:29:16;19.33;;;5.05;;
32080;SDS011;18593;51.426;7.030;2023-05-24T09:31:48;14.63;;;4.53;;
32080;SDS011;18593;51.426;7.030;2023-05-24T09:34:20;14.57;;;4.65;;
32080;SDS011;18593;51.426;7.030;2023-05-24T09:36:48;17.33;;;4.78;;
32080;SDS011;18593;51.426;7.030;2023-05-24T09:39:17;18.30;;;4.57;;
32080;SDS011;18593;51.426;7.030;2023-05-24T09:41:51;15.80;;;4.20;;
32080;SDS011;18593;51.426;7.030;2023-05-24T09:44:23;21.05;;;4.70;;
32080;SDS011;18593;51.426;7.030;2023-05-24T09:46:51;18.63;;;4.63;;
32080;SDS011;18593;51.426;7.030;2023-05-24T09:49:19;18.23;;;4.55;;
32080;SDS011;18593;51.426;7.030;2023-05-24T09:51:47;17.35;;;4.75;;
32080;SDS011;18593;51.426;7.030;2023-05-24T09:54:14;20.67;;;5.05;;
32080;SDS011;18593;51.426;7.030;2023-05-24T09:56:41;19.25;;;4.75;;
32080;SDS011;18593;51.426;7.030;2023-05-24T09:59:13;16.70;;;4.50;;
32080;SDS011;18593;51.426;7.030;2023-05-24T10:01:41;20.85;;;5.32;;
32080;SDS011;18593;51.426;7.030;2023-05-24T10:04:08;17.45;;;4.70;;
32080;SDS011;18593;51.426;7.030;2023-05-24T10:06:35;17.15;;;4.43;;
32080;SDS011;18593;51.426;7.030;2023-05-24T10:09:04;16.67;;;4.22;;
32080;SDS011;18593;51.426;7.030;2023-05-24T10:11:33;18.38;;;4.63;;
32080;SDS011;18593;51.426;7.030;2023-05-24T10:14:02;16.88;;;4.57;;
32080;SDS011;18593;51.426;7.030;2023-05-24T10:16:32;19.40;;;5.05;;
32080;SDS011;18593;51.426;7.030;2023-05-24T10:19:01;17.63;;;4.90;;
32080;SDS011;18593;51.426;7.030;2023-05-24T10:21:30;19.27;;;4.50;;
32080;SDS011;18593;51.426;7.030;2023-05-24T10:23:58;18.25;;;4.57;;
32080;SDS011;18593;51.426;7.030;2023-05-24T10:26:30;12.23;;;4.45;;
32080;SDS011;18593;51.426;7.030;2023-05-24T10:28:59;16.25;;;4.68;;
32080;SDS011;18593;51.426;7.030;2023-05-24T10:31:36;15.23;;;4.80;;
32080;SDS011;18593;51.426;7.030;2023-05-24T10:34:06;21.50;;;4.65;;
32080;SDS011;18593;51.426;7.030;2023-05-24T10:36:34;21.33;;;4.65;;
32080;SDS011;18593;51.426;7.030;2023-05-24T10:39:06;18.60;;;4.82;;
32080;SDS011;18593;51.426;7.030;2023-05-24T10:41:39;16.92;;;4.43;;
32080;SDS011;18593;51.426;7.030;2023-05-24T10:44:09;13.52;;;4.03;;
32080;SDS011;18593;51.426;7.030;2023-05-24T10:49:35;16.15;;;4.25;;
32080;SDS011;18593;51.426;7.030;2023-05-24T10:52:06;19.83;;;4.50;;
32080;SDS011;18593;51.426;7.030;2023-05-24T10:54:37;17.88;;;4.60;;
32080;SDS011;18593;51.426;7.030;2023-05-24T10:57:05;20.33;;;4.78;;
32080;SDS011;18593;51.426;7.030;2023-05-24T10:59:33;21.70;;;5.35;;
32080;SDS011;18593;51.426;7.030;2023-05-24T11:02:03;20.55;;;5.15;;
32080;SDS011;18593;51.426;7.030;2023-05-24T11:04:38;19.13;;;5.45;;
32080;SDS011;18593;51.426;7.030;2023-05-24T11:07:07;19.98;;;4.70;;
32080;SDS011;18593;51.426;7.030;2023-05-24T11:09:36;16.27;;;4.70;;
32080;SDS011;18593;51.426;7.030;2023-05-24T11:12:11;24.92;;;5.68;;
32080;SDS011;18593;51.426;7.030;2023-05-24T11:14:45;19.58;;;5.30;;
32080;SDS011;18593;51.426;7.030;2023-05-24T11:17:16;16.88;;;4.97;;
32080;SDS011;18593;51.426;7.030;2023-05-24T11:19:48;19.15;;;4.93;;
32080;SDS011;18593;51.426;7.030;2023-05-24T11:22:18;19.30;;;4.93;;
32080;SDS011;18593;51.426;7.030;2023-05-24T11:24:46;15.82;;;4.68;;
32080;SDS011;18593;51.426;7.030;2023-05-24T11:27:14;16.60;;;4.95;;
32080;SDS011;18593;51.426;7.030;2023-05-24T11:29:41;17.67;;;5.05;;
32080;SDS011;18593;51.426;7.030;2023-05-24T11:32:13;19.27;;;5.00;;
32080;SDS011;18593;51.426;7.030;2023-05-24T11:34:43;17.52;;;4.68;;
32080;SDS011;18593;51.426;7.030;2023-05-24T11:37:12;16.65;;;4.60;;
32080;SDS011;18593;51.426;7.030;2023-05-24T11:39:39;14.30;;;4.07;;
32080;SDS011;18593;51.426;7.030;2023-05-24T11:42:07;21.40;;;5.18;;
32080;SDS011;18593;51.426;7.030;2023-05-24T11:44:35;24.83;;;5.60;;
32080;SDS011;18593;51.426;7.030;2023-05-24T11:47:06;19.00;;;4.90;;
32080;SDS011;18593;51.426;7.030;2023-05-24T11:49:35;18.50;;;4.80;;
32080;SDS011;18593;51.426;7.030;2023-05-24T11:52:02;16.90;;;4.20;;
32080;SDS011;18593;51.426;7.030;2023-05-24T11:54:30;21.58;;;4.95;;
32080;SDS011;18593;51.426;7.030;2023-05-24T11:56:59;20.38;;;4.95;;
32080;SDS011;18593;51.426;7.030;2023-05-24T11:59:27;15.90;;;4.57;;
32080;SDS011;18593;51.426;7.030;2023-05-24T12:01:56;20.05;;;5.10;;
32080;SDS011;18593;51.426;7.030;2023-05-24T12:04:25;18.40;;;5.38;;
32080;SDS011;18593;51.426;7.030;2023-05-24T12:06:54;16.30;;;4.43;;
32080;SDS011;18593;51.426;7.030;2023-05-24T12:09:22;18.60;;;4.70;;
32080;SDS011;18593;51.426;7.030;2023-05-24T12:11:50;18.58;;;4.70;;
32080;SDS011;18593;51.426;7.030;2023-05-24T12:14:18;16.63;;;4.75;;
32080;SDS011;18593;51.426;7.030;2023-05-24T12:16:52;17.73;;;4.88;;
32080;SDS011;18593;51.426;7.030;2023-05-24T12:21:50;18.33;;;4.57;;
32080;SDS011;18593;51.426;7.030;2023-05-24T12:24:23;22.27;;;5.07;;
32080;SDS011;18593;51.426;7.030;2023-05-24T12:26:56;25.20;;;5.15;;
32080;SDS011;18593;51.426;7.030;2023-05-24T12:29:25;20.38;;;5.60;;
32080;SDS011;18593;51.426;7.030;2023-05-24T12:31:52;15.93;;;5.28;;
32080;SDS011;18593;51.426;7.030;2023-05-24T12:34:20;19.88;;;5.00;;
32080;SDS011;18593;51.426;7.030;2023-05-24T12:36:47;16.27;;;5.78;;
32080;SDS011;18593;51.426;7.030;2023-05-24T12:39:17;21.27;;;6.43;;
32080;SDS011;18593;51.426;7.030;2023-05-24T12:41:49;23.90;;;5.85;;
32080;SDS011;18593;51.426;7.030;2023-05-24T12:44:21;23.80;;;5.18;;
32080;SDS011;18593;51.426;7.030;2023-05-24T12:46:51;17.15;;;5.05;;
32080;SDS011;18593;51.426;7.030;2023-05-24T12:49:20;18.67;;;5.47;;
32080;SDS011;18593;51.426;7.030;2023-05-24T12:51:47;18.50;;;5.57;;
32080;SDS011;18593;51.426;7.030;2023-05-24T12:54:17;19.98;;;5.93;;
32080;SDS011;18593;51.426;7.030;2023-05-24T12:56:47;21.77;;;5.13;;
32080;SDS011;18593;51.426;7.030;2023-05-24T12:59:15;16.15;;;5.43;;
32080;SDS011;18593;51.426;7.030;2023-05-24T13:01:43;24.92;;;6.20;;
32080;SDS011;18593;51.426;7.030;2023-05-24T13:04:14;20.40;;;5.05;;
32080;SDS011;18593;51.426;7.030;2023-05-24T13:06:42;26.75;;;5.72;;
32080;SDS011;18593;51.426;7.030;2023-05-24T13:09:09;16.00;;;5.57;;
32080;SDS011;18593;51.426;7.030;2023-05-24T13:11:39;18.15;;;5.68;;
32080;SDS011;18593;51.426;7.030;2023-05-24T13:14:06;19.15;;;5.70;;
32080;SDS011;18593;51.426;7.030;2023-05-24T13:16:35;17.75;;;5.72;;
32080;SDS011;18593;51.426;7.030;2023-05-24T13:19:02;20.95;;;6.07;;
32080;SDS011;18593;51.426;7.030;2023-05-24T13:21:29;20.15;;;5.93;;
32080;SDS011;18593;51.426;7.030;2023-05-24T13:23:57;19.05;;;5.63;;
32080;SDS011;18593;51.426;7.030;2023-05-24T13:26:24;16.58;;;5.80;;
32080;SDS011;18593;51.426;7.030;2023-05-24T13:28:53;20.17;;;5.32;;
32080;SDS011;18593;51.426;7.030;2023-05-24T13:31:20;18.52;;;6.05;;
32080;SDS011;18593;51.426;7.030;2023-05-24T13:33:47;16.70;;;5.20;;
32080;SDS011;18593;51.426;7.030;2023-05-24T13:36:16;14.73;;;4.90;;
32080;SDS011;18593;51.426;7.030;2023-05-24T13:38:43;20.75;;;5.72;;
32080;SDS011;18593;51.426;7.030;2023-05-24T13:41:10;16.05;;;5.63;;
32080;SDS011;18593;51.426;7.030;2023-05-24T13:43:37;15.18;;;4.75;;
32080;SDS011;18593;51.426;7.030;2023-05-24T13:46:06;25.42;;;6.30;;
32080;SDS011;18593;51.426;7.030;2023-05-24T13:48:33;19.08;;;5.93;;
32080;SDS011;18593;51.426;7.030;2023-05-24T13:51:00;21.92;;;6.28;;
32080;SDS011;18593;51.426;7.030;2023-05-24T13:53:28;24.52;;;6.43;;
32080;SDS011;18593;51.426;7.030;2023-05-24T13:55:55;17.52;;;6.00;;
32080;SDS011;18593;51.426;7.030;2023-05-24T13:58:22;19.25;;;5.90;;
32080;SDS011;18593;51.426;7.030;2023-05-24T14:00:50;19.90;;;5.85;;
32080;SDS011;18593;51.426;7.030;2023-05-24T14:03:19;19.02;;;6.07;;
32080;SDS011;18593;51.426;7.030;2023-05-24T14:05:46;17.48;;;6.18;;
32080;SDS011;18593;51.426;7.030;2023-05-24T14:08:13;15.70;;;6.18;;
32080;SDS011;18593;51.426;7.030;2023-05-24T14:10:41;20.88;;;6.43;;
32080;SDS011;18593;51.426;7.030;2023-05-24T14:13:09;19.70;;;6.80;;
32080;SDS011;18593;51.426;7.030;2023-05-24T14:15:36;20.35;;;6.40;;
32080;SDS011;18593;51.426;7.030;2023-05-24T14:18:04;20.67;;;5.95;;
32080;SDS011;18593;51.426;7.030;2023-05-24T14:20:33;20.83;;;5.75;;
32080;SDS011;18593;51.426;7.030;2023-05-24T14:23:01;23.40;;;5.95;;
32080;SDS011;18593;51.426;7.030;2023-05-24T14:25:29;19.58;;;6.10;;
32080;SDS011;18593;51.426;7.030;2023-05-24T14:27:57;14.63;;;5.18;;
32080;SDS011;18593;51.426;7.030;2023-05-24T14:30:24;17.65;;;5.90;;
32080;SDS011;18593;51.426;7.030;2023-05-24T14:32:52;17.50;;;5.90;;
32080;SDS011;18593;51.426;7.030;2023-05-24T14:35:19;18.80;;;5.90;;
32080;SDS011;18593;51.426;7.030;2023-05-24T14:37:47;15.27;;;5.60;;
32080;SDS011;18593;51.426;7.030;2023-05-24T14:40:15;13.30;;;5.25;;
32080;SDS011;18593;51.426;7.030;2023-05-24T14:42:42;18.13;;;5.75;;
32080;SDS011;18593;51.426;7.030;2023-05-24T14:45:10;19.95;;;5.63;;
32080;SDS011;18593;51.426;7.030;2023-05-24T14:47:37;22.52;;;6.22;;
32080;SDS011;18593;51.426;7.030;2023-05-24T14:50:05;16.10;;;6.10;;
32080;SDS011;18593;51.426;7.030;2023-05-24T14:52:33;18.98;;;6.53;;
32080;SDS011;18593;51.426;7.030;2023-05-24T14:55:02;19.58;;;6.38;;
32080;SDS011;18593;51.426;7.030;2023-05-24T14:57:31;21.60;;;6.83;;
32080;SDS011;18593;51.426;7.030;2023-05-24T14:59:58;17.88;;;6.80;;
32080;SDS011;18593;51.426;7.030;2023-05-24T15:02:25;21.17;;;7.35;;